Eiwamaru — JG5742 — position and weather

sailwx.info

Track history (hours):
 
Tides and Currents Weather Stations Pressure Air Temp Water Temp Dewpoint Dewpoint Depression Visibility Wind Speed Wind Dir Waves Ship Positions

Eiwamaru

Last reported at 2014-Sep-16 05:12 UTC. Time now 2014-Sep-20 03:57 UTC.
Position N 34°37' E 135°01'.

Length 80 m; draft 5.2 m.

Type: Tanker. MMSI: 431101045.

Date/timePositionNaut miles runAvg speedWind from/ knotsBaromVisibWave heightAir tempDewpointWater temp
2014-Sep-16 05:12N 34°37' E 135°01'913.4
2014-Sep-16 04:33N 34°35' E 135°12'1211.8
2014-Sep-16 03:33N 34°33' E 135°26'0 0.1
2014-Sep-16 02:33N 34°33' E 135°26'0 0.0
2014-Sep-16 01:27N 34°33' E 135°26'0 0.0
2014-Sep-16 00:32N 34°33' E 135°26'0 0.0
2014-Sep-15 23:33N 34°33' E 135°26'0 0.2
2014-Sep-15 22:32N 34°33' E 135°26'6 5.6
2014-Sep-15 21:33N 34°32' E 135°19'1 0.5
2014-Sep-15 20:33N 34°31' E 135°19'0 0.0
2014-Sep-15 19:30N 34°31' E 135°19'0 0.0
2014-Sep-15 18:12N 34°31' E 135°19'0 0.1
2014-Sep-15 17:18N 34°32' E 135°19'0 0.1
2014-Sep-15 16:24N 34°31' E 135°19'0 0.0
2014-Sep-15 15:30N 34°31' E 135°19'0 0.0
2014-Sep-15 14:30N 34°31' E 135°19'0 0.0
2014-Sep-15 13:30N 34°31' E 135°19'0 0.0
2014-Sep-15 12:18N 34°31' E 135°19'0 0.0
2014-Sep-15 11:30N 34°31' E 135°19'0 0.0
2014-Sep-15 10:30N 34°31' E 135°19'0 0.0
2014-Sep-15 08:24N 34°31' E 135°19'0 0.0
2014-Sep-15 07:30N 34°31' E 135°19'0 0.0
2014-Sep-15 05:30N 34°31' E 135°19'0 0.0
2014-Sep-15 04:30N 34°31' E 135°19'0 0.0
2014-Sep-15 03:30N 34°31' E 135°19'0 0.0
2014-Sep-15 02:12N 34°31' E 135°19'0 0.0
2014-Sep-15 01:30N 34°31' E 135°19'0 0.0
2014-Sep-15 00:30N 34°31' E 135°19'0 0.0
2014-Sep-14 23:24N 34°31' E 135°19'0 0.0
2014-Sep-14 22:30N 34°31' E 135°19'0 0.1
2014-Sep-14 21:30N 34°31' E 135°19'0 0.0
2014-Sep-14 20:18N 34°31' E 135°19'0 0.1
2014-Sep-14 19:30N 34°31' E 135°19'0 0.0
2014-Sep-14 18:24N 34°31' E 135°19'0 0.0
2014-Sep-14 17:30N 34°31' E 135°19'0 0.0
2014-Sep-14 16:24N 34°31' E 135°19'0 0.1
2014-Sep-14 15:30N 34°31' E 135°19'1 0.8
2014-Sep-14 14:33N 34°31' E 135°18'1312.8
2014-Sep-14 13:33N 34°23' E 135°06'1312.1
2014-Sep-14 12:31N 34°12' E 134°59'  
2014-Sep-10 05:24N 34°56' E 139°21'1113.0
2014-Sep-10 04:33N 35°02' E 139°33'1313.1
2014-Sep-10 03:33N 35°11' E 139°44'1211.5
2014-Sep-10 02:33N 35°22' E 139°42'9 9.5
2014-Sep-10 01:33N 35°31' E 139°46'0 0.0
2014-Sep-10 00:33N 35°31' E 139°46'0 0.0
2014-Sep-09 23:33N 35°31' E 139°46'0 0.0
2014-Sep-09 22:33N 35°31' E 139°46'2 1.7
2014-Sep-09 21:33N 35°30' E 139°48'1 1.3
2014-Sep-09 20:26N 35°28' E 139°48'0 0.1
2014-Sep-09 19:32N 35°28' E 139°48'8 8.0
2014-Sep-09 18:34N 35°21' E 139°45'1212.1
2014-Sep-09 17:33N 35°09' E 139°46'1313.4
2014-Sep-09 16:33N 34°59' E 139°35'1914.2
2014-Sep-09 15:12N 34°47' E 139°17'  
Track history (hours):
 
Tides and Currents Weather Stations Pressure Air Temp Water Temp Dewpoint Dewpoint Depression Visibility Wind Speed Wind Dir Waves Ship Positions

Eiwamaru

Last reported at 2014-Sep-16 05:12 UTC. Time now 2014-Sep-20 03:57 UTC.
Position N 34°37' E 135°01'.

Length 80 m; draft 5.2 m.

Type: Tanker. MMSI: 431101045.

Date/timePositionNaut miles runAvg speedWind from/ knotsBaromVisibWave heightAir tempDewpointWater temp
2014-Sep-16 05:12N 34°37' E 135°01'913.4
2014-Sep-16 04:33N 34°35' E 135°12'1211.8
2014-Sep-16 03:33N 34°33' E 135°26'0 0.1
2014-Sep-16 02:33N 34°33' E 135°26'0 0.0
2014-Sep-16 01:27N 34°33' E 135°26'0 0.0
2014-Sep-16 00:32N 34°33' E 135°26'0 0.0
2014-Sep-15 23:33N 34°33' E 135°26'0 0.2
2014-Sep-15 22:32N 34°33' E 135°26'6 5.6
2014-Sep-15 21:33N 34°32' E 135°19'1 0.5
2014-Sep-15 20:33N 34°31' E 135°19'0 0.0
2014-Sep-15 19:30N 34°31' E 135°19'0 0.0
2014-Sep-15 18:12N 34°31' E 135°19'0 0.1
2014-Sep-15 17:18N 34°32' E 135°19'0 0.1
2014-Sep-15 16:24N 34°31' E 135°19'0 0.0
2014-Sep-15 15:30N 34°31' E 135°19'0 0.0
2014-Sep-15 14:30N 34°31' E 135°19'0 0.0
2014-Sep-15 13:30N 34°31' E 135°19'0 0.0
2014-Sep-15 12:18N 34°31' E 135°19'0 0.0
2014-Sep-15 11:30N 34°31' E 135°19'0 0.0
2014-Sep-15 10:30N 34°31' E 135°19'0 0.0
2014-Sep-15 08:24N 34°31' E 135°19'0 0.0
2014-Sep-15 07:30N 34°31' E 135°19'0 0.0
2014-Sep-15 05:30N 34°31' E 135°19'0 0.0
2014-Sep-15 04:30N 34°31' E 135°19'0 0.0
2014-Sep-15 03:30N 34°31' E 135°19'0 0.0
2014-Sep-15 02:12N 34°31' E 135°19'0 0.0
2014-Sep-15 01:30N 34°31' E 135°19'0 0.0
2014-Sep-15 00:30N 34°31' E 135°19'0 0.0
2014-Sep-14 23:24N 34°31' E 135°19'0 0.0
2014-Sep-14 22:30N 34°31' E 135°19'0 0.1
2014-Sep-14 21:30N 34°31' E 135°19'0 0.0
2014-Sep-14 20:18N 34°31' E 135°19'0 0.1
2014-Sep-14 19:30N 34°31' E 135°19'0 0.0
2014-Sep-14 18:24N 34°31' E 135°19'0 0.0
2014-Sep-14 17:30N 34°31' E 135°19'0 0.0
2014-Sep-14 16:24N 34°31' E 135°19'0 0.1
2014-Sep-14 15:30N 34°31' E 135°19'1 0.8
2014-Sep-14 14:33N 34°31' E 135°18'1312.8
2014-Sep-14 13:33N 34°23' E 135°06'1312.1
2014-Sep-14 12:31N 34°12' E 134°59'  
2014-Sep-10 05:24N 34°56' E 139°21'1113.0
2014-Sep-10 04:33N 35°02' E 139°33'1313.1
2014-Sep-10 03:33N 35°11' E 139°44'1211.5
2014-Sep-10 02:33N 35°22' E 139°42'9 9.5
2014-Sep-10 01:33N 35°31' E 139°46'0 0.0
2014-Sep-10 00:33N 35°31' E 139°46'0 0.0
2014-Sep-09 23:33N 35°31' E 139°46'0 0.0
2014-Sep-09 22:33N 35°31' E 139°46'2 1.7
2014-Sep-09 21:33N 35°30' E 139°48'1 1.3
2014-Sep-09 20:26N 35°28' E 139°48'0 0.1
2014-Sep-09 19:32N 35°28' E 139°48'8 8.0
2014-Sep-09 18:34N 35°21' E 139°45'1212.1
2014-Sep-09 17:33N 35°09' E 139°46'1313.4
2014-Sep-09 16:33N 34°59' E 139°35'1914.2
2014-Sep-09 15:12N 34°47' E 139°17'  

Dump ship's entire track history